sensor_id;sensor_type;location;lat;lon;timestamp;P1;durP1;ratioP1;P2;durP2;ratioP2
23628;SDS011;11991;57.150;-2.134;2024-01-30T00:02:20;2.87;;;1.60;;
23628;SDS011;11991;57.150;-2.134;2024-01-30T00:04:47;3.40;;;1.95;;
23628;SDS011;11991;57.150;-2.134;2024-01-30T00:07:14;2.57;;;1.80;;
23628;SDS011;11991;57.150;-2.134;2024-01-30T00:09:42;2.92;;;1.50;;
23628;SDS011;11991;57.150;-2.134;2024-01-30T00:12:09;3.63;;;2.33;;
23628;SDS011;11991;57.150;-2.134;2024-01-30T00:14:36;6.13;;;2.63;;
23628;SDS011;11991;57.150;-2.134;2024-01-30T00:17:04;1.80;;;1.47;;
23628;SDS011;11991;57.150;-2.134;2024-01-30T00:19:31;3.40;;;2.00;;
23628;SDS011;11991;57.150;-2.134;2024-01-30T00:21:58;4.03;;;1.73;;
23628;SDS011;11991;57.150;-2.134;2024-01-30T00:24:26;2.83;;;1.87;;
23628;SDS011;11991;57.150;-2.134;2024-01-30T00:26:53;1.73;;;1.35;;
23628;SDS011;11991;57.150;-2.134;2024-01-30T00:29:20;2.53;;;2.10;;
23628;SDS011;11991;57.150;-2.134;2024-01-30T00:31:49;2.50;;;1.50;;
23628;SDS011;11991;57.150;-2.134;2024-01-30T00:34:16;2.38;;;1.50;;
23628;SDS011;11991;57.150;-2.134;2024-01-30T00:36:43;4.38;;;2.00;;
23628;SDS011;11991;57.150;-2.134;2024-01-30T00:39:10;4.37;;;2.03;;
23628;SDS011;11991;57.150;-2.134;2024-01-30T00:41:38;3.93;;;1.90;;
23628;SDS011;11991;57.150;-2.134;2024-01-30T00:44:05;2.20;;;1.42;;
23628;SDS011;11991;57.150;-2.134;2024-01-30T00:46:32;2.22;;;1.50;;
23628;SDS011;11991;57.150;-2.134;2024-01-30T00:48:59;5.05;;;1.80;;
23628;SDS011;11991;57.150;-2.134;2024-01-30T00:51:27;3.77;;;1.90;;
23628;SDS011;11991;57.150;-2.134;2024-01-30T00:53:56;2.57;;;2.20;;
23628;SDS011;11991;57.150;-2.134;2024-01-30T00:56:23;3.17;;;1.53;;
23628;SDS011;11991;57.150;-2.134;2024-01-30T00:58:51;2.70;;;1.73;;
23628;SDS011;11991;57.150;-2.134;2024-01-30T01:01:18;1.65;;;1.40;;
23628;SDS011;11991;57.150;-2.134;2024-01-30T01:03:45;2.00;;;1.30;;
23628;SDS011;11991;57.150;-2.134;2024-01-30T01:06:13;2.00;;;1.30;;
23628;SDS011;11991;57.150;-2.134;2024-01-30T01:08:40;3.77;;;1.47;;
23628;SDS011;11991;57.150;-2.134;2024-01-30T01:11:08;4.07;;;1.77;;
23628;SDS011;11991;57.150;-2.134;2024-01-30T01:13:36;4.10;;;1.70;;
23628;SDS011;11991;57.150;-2.134;2024-01-30T01:16:03;3.53;;;1.77;;
23628;SDS011;11991;57.150;-2.134;2024-01-30T01:18:30;3.47;;;1.67;;
23628;SDS011;11991;57.150;-2.134;2024-01-30T01:20:59;4.23;;;1.80;;
23628;SDS011;11991;57.150;-2.134;2024-01-30T01:23:27;7.30;;;2.63;;
23628;SDS011;11991;57.150;-2.134;2024-01-30T01:25:54;5.07;;;1.90;;
23628;SDS011;11991;57.150;-2.134;2024-01-30T01:28:25;6.73;;;2.40;;
23628;SDS011;11991;57.150;-2.134;2024-01-30T01:30:53;6.67;;;2.20;;
23628;SDS011;11991;57.150;-2.134;2024-01-30T01:33:25;3.50;;;1.60;;
23628;SDS011;11991;57.150;-2.134;2024-01-30T01:35:53;6.20;;;2.30;;
23628;SDS011;11991;57.150;-2.134;2024-01-30T01:38:20;8.33;;;2.73;;
23628;SDS011;11991;57.150;-2.134;2024-01-30T01:40:47;3.63;;;2.00;;
23628;SDS011;11991;57.150;-2.134;2024-01-30T01:43:14;8.50;;;2.67;;
23628;SDS011;11991;57.150;-2.134;2024-01-30T01:45:41;4.43;;;2.00;;
23628;SDS011;11991;57.150;-2.134;2024-01-30T01:48:09;5.83;;;2.17;;
23628;SDS011;11991;57.150;-2.134;2024-01-30T01:50:37;3.87;;;1.60;;
23628;SDS011;11991;57.150;-2.134;2024-01-30T01:53:06;4.60;;;2.63;;
23628;SDS011;11991;57.150;-2.134;2024-01-30T01:55:34;4.00;;;2.03;;
23628;SDS011;11991;57.150;-2.134;2024-01-30T01:58:02;5.20;;;2.00;;
23628;SDS011;11991;57.150;-2.134;2024-01-30T02:00:30;3.63;;;1.67;;
23628;SDS011;11991;57.150;-2.134;2024-01-30T02:02:57;4.27;;;1.93;;
23628;SDS011;11991;57.150;-2.134;2024-01-30T02:05:26;3.53;;;1.30;;
23628;SDS011;11991;57.150;-2.134;2024-01-30T02:07:53;5.03;;;1.60;;
23628;SDS011;11991;57.150;-2.134;2024-01-30T02:10:21;4.77;;;1.87;;
23628;SDS011;11991;57.150;-2.134;2024-01-30T02:12:49;4.13;;;1.60;;
23628;SDS011;11991;57.150;-2.134;2024-01-30T02:15:16;2.13;;;1.30;;
23628;SDS011;11991;57.150;-2.134;2024-01-30T02:17:44;1.90;;;1.20;;
23628;SDS011;11991;57.150;-2.134;2024-01-30T02:20:11;3.67;;;1.47;;
23628;SDS011;11991;57.150;-2.134;2024-01-30T02:22:40;3.40;;;1.77;;
23628;SDS011;11991;57.150;-2.134;2024-01-30T02:25:07;5.03;;;1.93;;
23628;SDS011;11991;57.150;-2.134;2024-01-30T02:27:35;4.33;;;1.40;;
23628;SDS011;11991;57.150;-2.134;2024-01-30T02:30:02;4.37;;;1.57;;
23628;SDS011;11991;57.150;-2.134;2024-01-30T02:32:29;2.17;;;1.10;;
23628;SDS011;11991;57.150;-2.134;2024-01-30T02:34:57;3.70;;;1.60;;
23628;SDS011;11991;57.150;-2.134;2024-01-30T02:37:24;6.90;;;2.60;;
23628;SDS011;11991;57.150;-2.134;2024-01-30T02:39:51;3.77;;;1.63;;
23628;SDS011;11991;57.150;-2.134;2024-01-30T02:42:18;3.33;;;1.30;;
23628;SDS011;11991;57.150;-2.134;2024-01-30T02:44:45;3.67;;;1.23;;
23628;SDS011;11991;57.150;-2.134;2024-01-30T02:47:13;6.50;;;1.83;;
23628;SDS011;11991;57.150;-2.134;2024-01-30T02:49:40;2.60;;;1.33;;
23628;SDS011;11991;57.150;-2.134;2024-01-30T02:52:07;5.17;;;1.77;;
23628;SDS011;11991;57.150;-2.134;2024-01-30T02:54:34;4.80;;;1.97;;
23628;SDS011;11991;57.150;-2.134;2024-01-30T02:57:03;5.40;;;2.13;;
23628;SDS011;11991;57.150;-2.134;2024-01-30T02:59:30;7.63;;;1.70;;
23628;SDS011;11991;57.150;-2.134;2024-01-30T03:01:59;7.93;;;2.60;;
23628;SDS011;11991;57.150;-2.134;2024-01-30T03:04:27;10.53;;;2.53;;
23628;SDS011;11991;57.150;-2.134;2024-01-30T03:06:56;6.50;;;1.80;;
23628;SDS011;11991;57.150;-2.134;2024-01-30T03:09:24;6.57;;;1.80;;
23628;SDS011;11991;57.150;-2.134;2024-01-30T03:11:51;6.30;;;1.87;;
23628;SDS011;11991;57.150;-2.134;2024-01-30T03:14:18;6.47;;;2.23;;
23628;SDS011;11991;57.150;-2.134;2024-01-30T03:16:45;6.27;;;1.90;;
23628;SDS011;11991;57.150;-2.134;2024-01-30T03:19:12;7.23;;;2.40;;
23628;SDS011;11991;57.150;-2.134;2024-01-30T03:21:40;6.37;;;1.80;;
23628;SDS011;11991;57.150;-2.134;2024-01-30T03:24:07;7.10;;;2.53;;
23628;SDS011;11991;57.150;-2.134;2024-01-30T03:26:34;6.63;;;1.97;;
23628;SDS011;11991;57.150;-2.134;2024-01-30T03:29:01;7.33;;;2.00;;
23628;SDS011;11991;57.150;-2.134;2024-01-30T03:31:28;5.67;;;1.47;;
23628;SDS011;11991;57.150;-2.134;2024-01-30T03:33:56;6.10;;;1.73;;
23628;SDS011;11991;57.150;-2.134;2024-01-30T03:36:23;13.00;;;2.60;;
23628;SDS011;11991;57.150;-2.134;2024-01-30T03:38:50;4.80;;;2.33;;
23628;SDS011;11991;57.150;-2.134;2024-01-30T03:41:17;6.27;;;2.37;;
23628;SDS011;11991;57.150;-2.134;2024-01-30T03:43:44;6.13;;;2.10;;
23628;SDS011;11991;57.150;-2.134;2024-01-30T03:46:12;5.03;;;1.70;;
23628;SDS011;11991;57.150;-2.134;2024-01-30T03:48:39;5.87;;;2.00;;
23628;SDS011;11991;57.150;-2.134;2024-01-30T03:51:06;6.87;;;1.93;;
23628;SDS011;11991;57.150;-2.134;2024-01-30T03:53:34;7.97;;;2.30;;
23628;SDS011;11991;57.150;-2.134;2024-01-30T03:56:01;6.83;;;2.20;;
23628;SDS011;11991;57.150;-2.134;2024-01-30T03:58:29;4.90;;;1.50;;
23628;SDS011;11991;57.150;-2.134;2024-01-30T04:00:56;6.67;;;2.10;;
23628;SDS011;11991;57.150;-2.134;2024-01-30T04:03:24;6.37;;;2.53;;
23628;SDS011;11991;57.150;-2.134;2024-01-30T04:05:51;6.53;;;1.77;;
23628;SDS011;11991;57.150;-2.134;2024-01-30T04:08:19;4.80;;;1.87;;
23628;SDS011;11991;57.150;-2.134;2024-01-30T04:10:47;5.03;;;1.80;;
23628;SDS011;11991;57.150;-2.134;2024-01-30T04:13:14;7.73;;;2.47;;
23628;SDS011;11991;57.150;-2.134;2024-01-30T04:15:41;4.27;;;2.10;;
23628;SDS011;11991;57.150;-2.134;2024-01-30T04:18:09;5.73;;;2.90;;
23628;SDS011;11991;57.150;-2.134;2024-01-30T04:20:36;2.67;;;1.77;;
23628;SDS011;11991;57.150;-2.134;2024-01-30T04:23:03;7.77;;;2.27;;
23628;SDS011;11991;57.150;-2.134;2024-01-30T04:25:30;5.90;;;1.93;;
23628;SDS011;11991;57.150;-2.134;2024-01-30T04:27:58;5.23;;;2.10;;
23628;SDS011;11991;57.150;-2.134;2024-01-30T04:30:25;6.53;;;3.20;;
23628;SDS011;11991;57.150;-2.134;2024-01-30T04:32:52;5.97;;;2.90;;
23628;SDS011;11991;57.150;-2.134;2024-01-30T04:35:19;7.50;;;1.97;;
23628;SDS011;11991;57.150;-2.134;2024-01-30T04:37:51;7.63;;;2.10;;
23628;SDS011;11991;57.150;-2.134;2024-01-30T04:40:22;5.83;;;1.90;;
23628;SDS011;11991;57.150;-2.134;2024-01-30T04:42:50;6.97;;;2.70;;
23628;SDS011;11991;57.150;-2.134;2024-01-30T04:45:17;5.97;;;2.00;;
23628;SDS011;11991;57.150;-2.134;2024-01-30T04:47:44;4.27;;;1.60;;
23628;SDS011;11991;57.150;-2.134;2024-01-30T04:50:13;5.47;;;1.80;;
23628;SDS011;11991;57.150;-2.134;2024-01-30T04:52:40;7.53;;;2.10;;
23628;SDS011;11991;57.150;-2.134;2024-01-30T04:55:07;4.20;;;1.70;;
23628;SDS011;11991;57.150;-2.134;2024-01-30T04:57:34;2.83;;;1.37;;
23628;SDS011;11991;57.150;-2.134;2024-01-30T05:00:02;2.97;;;1.47;;
23628;SDS011;11991;57.150;-2.134;2024-01-30T05:02:29;3.80;;;1.47;;
23628;SDS011;11991;57.150;-2.134;2024-01-30T05:04:57;2.27;;;0.83;;
23628;SDS011;11991;57.150;-2.134;2024-01-30T05:07:25;3.70;;;1.20;;
23628;SDS011;11991;57.150;-2.134;2024-01-30T05:09:53;3.17;;;1.20;;
23628;SDS011;11991;57.150;-2.134;2024-01-30T05:12:25;3.90;;;1.30;;
23628;SDS011;11991;57.150;-2.134;2024-01-30T05:14:52;3.50;;;1.20;;
23628;SDS011;11991;57.150;-2.134;2024-01-30T05:17:19;4.13;;;1.70;;
23628;SDS011;11991;57.150;-2.134;2024-01-30T05:19:47;3.13;;;1.10;;
23628;SDS011;11991;57.150;-2.134;2024-01-30T05:22:14;2.53;;;0.97;;
23628;SDS011;11991;57.150;-2.134;2024-01-30T05:24:42;4.17;;;1.33;;
23628;SDS011;11991;57.150;-2.134;2024-01-30T05:27:09;4.77;;;1.30;;
23628;SDS011;11991;57.150;-2.134;2024-01-30T05:29:37;1.70;;;0.87;;
23628;SDS011;11991;57.150;-2.134;2024-01-30T05:32:04;1.70;;;1.03;;
23628;SDS011;11991;57.150;-2.134;2024-01-30T05:34:32;3.90;;;1.40;;
23628;SDS011;11991;57.150;-2.134;2024-01-30T05:36:59;1.53;;;0.80;;
23628;SDS011;11991;57.150;-2.134;2024-01-30T05:39:27;5.93;;;1.30;;
23628;SDS011;11991;57.150;-2.134;2024-01-30T05:41:54;8.77;;;1.40;;
23628;SDS011;11991;57.150;-2.134;2024-01-30T05:44:21;5.00;;;1.83;;
23628;SDS011;11991;57.150;-2.134;2024-01-30T05:46:48;3.63;;;1.80;;
23628;SDS011;11991;57.150;-2.134;2024-01-30T05:49:15;3.27;;;1.30;;
23628;SDS011;11991;57.150;-2.134;2024-01-30T05:51:42;2.73;;;1.37;;
23628;SDS011;11991;57.150;-2.134;2024-01-30T05:54:10;3.20;;;1.20;;
23628;SDS011;11991;57.150;-2.134;2024-01-30T05:56:40;5.60;;;1.23;;
23628;SDS011;11991;57.150;-2.134;2024-01-30T05:59:07;3.00;;;1.10;;
23628;SDS011;11991;57.150;-2.134;2024-01-30T06:01:34;3.57;;;1.30;;
23628;SDS011;11991;57.150;-2.134;2024-01-30T06:04:02;2.23;;;0.80;;
23628;SDS011;11991;57.150;-2.134;2024-01-30T06:06:30;3.57;;;0.90;;
23628;SDS011;11991;57.150;-2.134;2024-01-30T06:08:57;3.30;;;1.40;;
23628;SDS011;11991;57.150;-2.134;2024-01-30T06:11:24;1.00;;;0.70;;
23628;SDS011;11991;57.150;-2.134;2024-01-30T06:13:51;1.30;;;1.00;;
23628;SDS011;11991;57.150;-2.134;2024-01-30T06:16:18;1.80;;;0.80;;
23628;SDS011;11991;57.150;-2.134;2024-01-30T06:18:47;1.83;;;0.83;;
23628;SDS011;11991;57.150;-2.134;2024-01-30T06:21:15;1.90;;;0.83;;
23628;SDS011;11991;57.150;-2.134;2024-01-30T06:23:42;6.77;;;1.60;;
23628;SDS011;11991;57.150;-2.134;2024-01-30T06:26:09;2.60;;;1.27;;
23628;SDS011;11991;57.150;-2.134;2024-01-30T06:28:37;3.30;;;1.10;;
23628;SDS011;11991;57.150;-2.134;2024-01-30T06:31:04;2.83;;;1.10;;
23628;SDS011;11991;57.150;-2.134;2024-01-30T06:33:31;1.97;;;1.10;;
23628;SDS011;11991;57.150;-2.134;2024-01-30T06:35:58;1.40;;;0.70;;
23628;SDS011;11991;57.150;-2.134;2024-01-30T06:38:25;1.77;;;0.80;;
23628;SDS011;11991;57.150;-2.134;2024-01-30T06:40:53;3.30;;;1.10;;
23628;SDS011;11991;57.150;-2.134;2024-01-30T06:43:20;1.47;;;0.80;;
23628;SDS011;11991;57.150;-2.134;2024-01-30T06:45:48;3.33;;;1.50;;
23628;SDS011;11991;57.150;-2.134;2024-01-30T06:48:15;2.13;;;1.07;;
23628;SDS011;11991;57.150;-2.134;2024-01-30T06:50:42;2.20;;;0.90;;
23628;SDS011;11991;57.150;-2.134;2024-01-30T06:53:10;4.00;;;1.10;;
23628;SDS011;11991;57.150;-2.134;2024-01-30T06:55:37;3.17;;;1.20;;
23628;SDS011;11991;57.150;-2.134;2024-01-30T06:58:04;2.33;;;1.00;;
23628;SDS011;11991;57.150;-2.134;2024-01-30T07:00:32;1.73;;;1.13;;
23628;SDS011;11991;57.150;-2.134;2024-01-30T07:02:59;3.70;;;1.13;;
23628;SDS011;11991;57.150;-2.134;2024-01-30T07:05:26;2.37;;;1.07;;
23628;SDS011;11991;57.150;-2.134;2024-01-30T07:07:53;3.17;;;1.00;;
23628;SDS011;11991;57.150;-2.134;2024-01-30T07:10:21;1.33;;;0.70;;
23628;SDS011;11991;57.150;-2.134;2024-01-30T07:12:48;1.83;;;0.80;;
23628;SDS011;11991;57.150;-2.134;2024-01-30T07:15:15;1.33;;;0.90;;
23628;SDS011;11991;57.150;-2.134;2024-01-30T07:17:46;1.73;;;0.90;;
23628;SDS011;11991;57.150;-2.134;2024-01-30T07:20:13;3.30;;;1.20;;
23628;SDS011;11991;57.150;-2.134;2024-01-30T07:22:43;1.77;;;0.90;;
23628;SDS011;11991;57.150;-2.134;2024-01-30T07:25:11;2.90;;;1.23;;
23628;SDS011;11991;57.150;-2.134;2024-01-30T07:27:38;4.30;;;1.10;;
23628;SDS011;11991;57.150;-2.134;2024-01-30T07:30:05;2.00;;;0.83;;
23628;SDS011;11991;57.150;-2.134;2024-01-30T07:32:33;1.67;;;0.80;;
23628;SDS011;11991;57.150;-2.134;2024-01-30T07:35:00;2.33;;;1.13;;
23628;SDS011;11991;57.150;-2.134;2024-01-30T07:37:34;2.13;;;1.10;;
23628;SDS011;11991;57.150;-2.134;2024-01-30T07:40:02;1.13;;;1.00;;
23628;SDS011;11991;57.150;-2.134;2024-01-30T07:42:30;2.07;;;1.13;;
23628;SDS011;11991;57.150;-2.134;2024-01-30T07:44:57;2.27;;;1.17;;
23628;SDS011;11991;57.150;-2.134;2024-01-30T07:47:25;2.23;;;0.87;;
23628;SDS011;11991;57.150;-2.134;2024-01-30T07:49:52;1.50;;;0.70;;
23628;SDS011;11991;57.150;-2.134;2024-01-30T07:52:21;1.20;;;0.70;;
23628;SDS011;11991;57.150;-2.134;2024-01-30T07:54:48;4.33;;;1.67;;
23628;SDS011;11991;57.150;-2.134;2024-01-30T07:57:16;8.07;;;3.23;;
23628;SDS011;11991;57.150;-2.134;2024-01-30T07:59:44;5.23;;;2.43;;
23628;SDS011;11991;57.150;-2.134;2024-01-30T08:02:12;1.43;;;0.97;;
23628;SDS011;11991;57.150;-2.134;2024-01-30T08:04:39;4.50;;;1.57;;
23628;SDS011;11991;57.150;-2.134;2024-01-30T08:07:07;5.20;;;1.50;;
23628;SDS011;11991;57.150;-2.134;2024-01-30T08:09:35;1.03;;;0.90;;
23628;SDS011;11991;57.150;-2.134;2024-01-30T08:12:02;0.90;;;0.70;;
23628;SDS011;11991;57.150;-2.134;2024-01-30T08:14:29;4.57;;;1.33;;
23628;SDS011;11991;57.150;-2.134;2024-01-30T08:16:56;2.23;;;1.00;;
23628;SDS011;11991;57.150;-2.134;2024-01-30T08:19:24;1.70;;;1.10;;
23628;SDS011;11991;57.150;-2.134;2024-01-30T08:21:51;2.23;;;1.27;;
23628;SDS011;11991;57.150;-2.134;2024-01-30T08:24:18;2.40;;;1.00;;
23628;SDS011;11991;57.150;-2.134;2024-01-30T08:26:45;1.00;;;0.90;;
23628;SDS011;11991;57.150;-2.134;2024-01-30T08:29:12;2.00;;;0.80;;
23628;SDS011;11991;57.150;-2.134;2024-01-30T08:31:40;4.47;;;2.60;;
23628;SDS011;11991;57.150;-2.134;2024-01-30T08:34:07;2.80;;;1.60;;
23628;SDS011;11991;57.150;-2.134;2024-01-30T08:36:35;1.13;;;0.90;;
23628;SDS011;11991;57.150;-2.134;2024-01-30T08:39:03;3.03;;;1.00;;
23628;SDS011;11991;57.150;-2.134;2024-01-30T08:41:32;1.67;;;0.90;;
23628;SDS011;11991;57.150;-2.134;2024-01-30T08:43:59;2.40;;;0.90;;
23628;SDS011;11991;57.150;-2.134;2024-01-30T08:46:26;3.30;;;1.33;;
23628;SDS011;11991;57.150;-2.134;2024-01-30T08:48:53;0.83;;;0.70;;
23628;SDS011;11991;57.150;-2.134;2024-01-30T08:51:21;2.40;;;0.80;;
23628;SDS011;11991;57.150;-2.134;2024-01-30T08:53:59;2.20;;;1.00;;
23628;SDS011;11991;57.150;-2.134;2024-01-30T08:56:27;1.87;;;1.13;;
23628;SDS011;11991;57.150;-2.134;2024-01-30T08:58:54;2.50;;;1.20;;
23628;SDS011;11991;57.150;-2.134;2024-01-30T09:01:22;2.00;;;0.93;;
23628;SDS011;11991;57.150;-2.134;2024-01-30T09:03:49;1.13;;;0.80;;
23628;SDS011;11991;57.150;-2.134;2024-01-30T09:06:16;1.43;;;0.90;;
23628;SDS011;11991;57.150;-2.134;2024-01-30T09:08:44;1.90;;;1.10;;
23628;SDS011;11991;57.150;-2.134;2024-01-30T09:11:12;1.47;;;1.33;;
23628;SDS011;11991;57.150;-2.134;2024-01-30T09:13:40;1.97;;;1.00;;
23628;SDS011;11991;57.150;-2.134;2024-01-30T09:16:07;2.83;;;1.00;;
23628;SDS011;11991;57.150;-2.134;2024-01-30T09:18:35;3.53;;;1.57;;
23628;SDS011;11991;57.150;-2.134;2024-01-30T09:21:02;1.93;;;1.03;;
23628;SDS011;11991;57.150;-2.134;2024-01-30T09:23:29;1.90;;;1.13;;
23628;SDS011;11991;57.150;-2.134;2024-01-30T09:25:56;1.40;;;1.10;;
23628;SDS011;11991;57.150;-2.134;2024-01-30T09:28:23;1.77;;;1.17;;
23628;SDS011;11991;57.150;-2.134;2024-01-30T09:30:53;2.13;;;1.10;;
23628;SDS011;11991;57.150;-2.134;2024-01-30T09:33:20;2.67;;;1.40;;
23628;SDS011;11991;57.150;-2.134;2024-01-30T09:35:47;4.10;;;2.00;;
23628;SDS011;11991;57.150;-2.134;2024-01-30T09:38:14;3.43;;;1.03;;
23628;SDS011;11991;57.150;-2.134;2024-01-30T09:40:42;1.53;;;1.00;;
23628;SDS011;11991;57.150;-2.134;2024-01-30T09:43:09;1.20;;;0.90;;
23628;SDS011;11991;57.150;-2.134;2024-01-30T09:45:45;1.23;;;1.00;;
23628;SDS011;11991;57.150;-2.134;2024-01-30T09:48:15;2.87;;;1.17;;
23628;SDS011;11991;57.150;-2.134;2024-01-30T09:50:42;2.30;;;1.20;;
23628;SDS011;11991;57.150;-2.134;2024-01-30T09:53:09;1.23;;;0.80;;
23628;SDS011;11991;57.150;-2.134;2024-01-30T09:55:39;2.07;;;1.20;;
23628;SDS011;11991;57.150;-2.134;2024-01-30T09:58:09;3.57;;;1.30;;
23628;SDS011;11991;57.150;-2.134;2024-01-30T10:00:38;2.60;;;1.10;;
23628;SDS011;11991;57.150;-2.134;2024-01-30T10:03:05;1.80;;;1.30;;
23628;SDS011;11991;57.150;-2.134;2024-01-30T10:05:32;2.30;;;1.33;;
23628;SDS011;11991;57.150;-2.134;2024-01-30T10:08:05;5.87;;;1.83;;
23628;SDS011;11991;57.150;-2.134;2024-01-30T10:10:38;3.90;;;1.20;;
23628;SDS011;11991;57.150;-2.134;2024-01-30T10:13:05;2.23;;;1.10;;
23628;SDS011;11991;57.150;-2.134;2024-01-30T10:15:32;2.17;;;1.00;;
23628;SDS011;11991;57.150;-2.134;2024-01-30T10:18:02;1.93;;;1.40;;
23628;SDS011;11991;57.150;-2.134;2024-01-30T10:20:29;3.40;;;1.57;;
23628;SDS011;11991;57.150;-2.134;2024-01-30T10:22:59;2.87;;;1.37;;
23628;SDS011;11991;57.150;-2.134;2024-01-30T10:25:26;3.70;;;1.30;;
23628;SDS011;11991;57.150;-2.134;2024-01-30T10:27:54;2.80;;;1.30;;
23628;SDS011;11991;57.150;-2.134;2024-01-30T10:30:22;2.83;;;1.37;;
23628;SDS011;11991;57.150;-2.134;2024-01-30T10:32:49;2.37;;;1.30;;
23628;SDS011;11991;57.150;-2.134;2024-01-30T10:35:18;2.17;;;1.20;;
23628;SDS011;11991;57.150;-2.134;2024-01-30T10:37:48;2.07;;;1.30;;
23628;SDS011;11991;57.150;-2.134;2024-01-30T10:40:16;2.40;;;1.30;;
23628;SDS011;11991;57.150;-2.134;2024-01-30T10:42:45;1.13;;;0.80;;
23628;SDS011;11991;57.150;-2.134;2024-01-30T10:45:12;1.50;;;1.33;;
23628;SDS011;11991;57.150;-2.134;2024-01-30T10:47:43;0.83;;;0.80;;
23628;SDS011;11991;57.150;-2.134;2024-01-30T10:50:17;2.20;;;1.20;;
23628;SDS011;11991;57.150;-2.134;2024-01-30T10:52:51;1.10;;;0.80;;
23628;SDS011;11991;57.150;-2.134;2024-01-30T10:55:19;1.63;;;0.80;;
23628;SDS011;11991;57.150;-2.134;2024-01-30T10:57:50;0.83;;;0.60;;
23628;SDS011;11991;57.150;-2.134;2024-01-30T11:00:17;3.20;;;1.03;;
23628;SDS011;11991;57.150;-2.134;2024-01-30T11:02:49;0.97;;;0.83;;
23628;SDS011;11991;57.150;-2.134;2024-01-30T11:05:23;1.27;;;0.70;;
23628;SDS011;11991;57.150;-2.134;2024-01-30T11:07:59;1.43;;;0.90;;
23628;SDS011;11991;57.150;-2.134;2024-01-30T11:10:44;1.63;;;0.80;;
23628;SDS011;11991;57.150;-2.134;2024-01-30T11:13:15;1.03;;;0.80;;
23628;SDS011;11991;57.150;-2.134;2024-01-30T11:15:47;1.60;;;0.80;;
23628;SDS011;11991;57.150;-2.134;2024-01-30T11:18:25;0.80;;;0.70;;
23628;SDS011;11991;57.150;-2.134;2024-01-30T11:20:52;1.85;;;0.80;;
23628;SDS011;11991;57.150;-2.134;2024-01-30T11:23:23;1.60;;;0.80;;
23628;SDS011;11991;57.150;-2.134;2024-01-30T11:25:53;2.00;;;1.23;;
23628;SDS011;11991;57.150;-2.134;2024-01-30T11:28:21;1.93;;;0.90;;
23628;SDS011;11991;57.150;-2.134;2024-01-30T11:30:48;2.00;;;0.93;;
23628;SDS011;11991;57.150;-2.134;2024-01-30T11:33:30;1.20;;;0.95;;
23628;SDS011;11991;57.150;-2.134;2024-01-30T11:36:00;3.70;;;0.90;;
23628;SDS011;11991;57.150;-2.134;2024-01-30T11:38:33;1.17;;;0.70;;
23628;SDS011;11991;57.150;-2.134;2024-01-30T11:41:00;1.27;;;0.70;;
23628;SDS011;11991;57.150;-2.134;2024-01-30T11:43:29;1.17;;;0.77;;
23628;SDS011;11991;57.150;-2.134;2024-01-30T11:45:56;3.17;;;1.38;;
23628;SDS011;11991;57.150;-2.134;2024-01-30T11:48:23;1.87;;;0.90;;
23628;SDS011;11991;57.150;-2.134;2024-01-30T11:50:53;0.70;;;0.70;;
23628;SDS011;11991;57.150;-2.134;2024-01-30T11:53:21;2.23;;;1.00;;
23628;SDS011;11991;57.150;-2.134;2024-01-30T11:55:49;1.25;;;1.00;;
23628;SDS011;11991;57.150;-2.134;2024-01-30T11:58:17;1.83;;;0.80;;
23628;SDS011;11991;57.150;-2.134;2024-01-30T12:00:52;2.73;;;0.87;;
23628;SDS011;11991;57.150;-2.134;2024-01-30T12:03:22;1.40;;;0.80;;
23628;SDS011;11991;57.150;-2.134;2024-01-30T12:05:56;2.80;;;0.80;;
23628;SDS011;11991;57.150;-2.134;2024-01-30T12:08:25;0.75;;;0.70;;
23628;SDS011;11991;57.150;-2.134;2024-01-30T12:10:57;1.95;;;0.90;;
23628;SDS011;11991;57.150;-2.134;2024-01-30T12:13:32;1.85;;;1.10;;
23628;SDS011;11991;57.150;-2.134;2024-01-30T12:16:00;2.03;;;0.77;;
23628;SDS011;11991;57.150;-2.134;2024-01-30T12:18:28;2.17;;;0.80;;
23628;SDS011;11991;57.150;-2.134;2024-01-30T12:20:58;2.28;;;0.70;;
23628;SDS011;11991;57.150;-2.134;2024-01-30T12:23:27;1.48;;;0.60;;
23628;SDS011;11991;57.150;-2.134;2024-01-30T12:25:54;0.82;;;0.57;;
23628;SDS011;11991;57.150;-2.134;2024-01-30T12:28:21;1.17;;;0.65;;
23628;SDS011;11991;57.150;-2.134;2024-01-30T12:30:49;1.73;;;0.82;;
23628;SDS011;11991;57.150;-2.134;2024-01-30T12:33:16;0.93;;;0.65;;
23628;SDS011;11991;57.150;-2.134;2024-01-30T12:35:45;1.73;;;0.80;;
23628;SDS011;11991;57.150;-2.134;2024-01-30T12:38:30;0.82;;;0.60;;
23628;SDS011;11991;57.150;-2.134;2024-01-30T12:40:58;1.05;;;0.80;;
23628;SDS011;11991;57.150;-2.134;2024-01-30T12:43:25;1.38;;;0.70;;
23628;SDS011;11991;57.150;-2.134;2024-01-30T12:46:04;1.23;;;0.80;;
23628;SDS011;11991;57.150;-2.134;2024-01-30T12:48:32;2.67;;;0.93;;
23628;SDS011;11991;57.150;-2.134;2024-01-30T12:51:00;1.33;;;0.80;;
23628;SDS011;11991;57.150;-2.134;2024-01-30T12:53:27;0.73;;;0.73;;
23628;SDS011;11991;57.150;-2.134;2024-01-30T12:55:54;0.85;;;0.70;;
23628;SDS011;11991;57.150;-2.134;2024-01-30T12:58:21;1.63;;;0.80;;
23628;SDS011;11991;57.150;-2.134;2024-01-30T13:00:49;0.80;;;0.70;;
23628;SDS011;11991;57.150;-2.134;2024-01-30T13:03:16;2.08;;;1.13;;
23628;SDS011;11991;57.150;-2.134;2024-01-30T13:05:43;1.35;;;0.80;;
23628;SDS011;11991;57.150;-2.134;2024-01-30T13:08:11;1.50;;;0.60;;
23628;SDS011;11991;57.150;-2.134;2024-01-30T13:10:38;0.73;;;0.60;;
23628;SDS011;11991;57.150;-2.134;2024-01-30T13:13:05;1.70;;;0.80;;
23628;SDS011;11991;57.150;-2.134;2024-01-30T13:15:42;2.92;;;1.10;;
23628;SDS011;11991;57.150;-2.134;2024-01-30T13:18:09;1.00;;;0.70;;
23628;SDS011;11991;57.150;-2.134;2024-01-30T13:20:37;1.23;;;0.93;;
23628;SDS011;11991;57.150;-2.134;2024-01-30T13:23:04;3.53;;;1.63;;
23628;SDS011;11991;57.150;-2.134;2024-01-30T13:25:31;1.00;;;0.90;;
23628;SDS011;11991;57.150;-2.134;2024-01-30T13:27:58;3.08;;;1.42;;
23628;SDS011;11991;57.150;-2.134;2024-01-30T13:30:25;2.70;;;1.08;;
23628;SDS011;11991;57.150;-2.134;2024-01-30T13:32:53;0.90;;;0.70;;
23628;SDS011;11991;57.150;-2.134;2024-01-30T13:35:20;0.70;;;0.70;;
23628;SDS011;11991;57.150;-2.134;2024-01-30T13:37:48;1.27;;;0.70;;
23628;SDS011;11991;57.150;-2.134;2024-01-30T13:40:15;2.00;;;0.88;;
23628;SDS011;11991;57.150;-2.134;2024-01-30T13:42:43;2.60;;;0.80;;
23628;SDS011;11991;57.150;-2.134;2024-01-30T13:45:10;1.15;;;0.80;;
23628;SDS011;11991;57.150;-2.134;2024-01-30T13:47:38;1.73;;;0.80;;
23628;SDS011;11991;57.150;-2.134;2024-01-30T13:50:05;1.25;;;0.88;;
23628;SDS011;11991;57.150;-2.134;2024-01-30T13:52:33;0.70;;;0.70;;
23628;SDS011;11991;57.150;-2.134;2024-01-30T13:55:10;1.10;;;0.70;;
23628;SDS011;11991;57.150;-2.134;2024-01-30T13:57:37;1.85;;;0.82;;
23628;SDS011;11991;57.150;-2.134;2024-01-30T14:00:05;0.73;;;0.65;;
23628;SDS011;11991;57.150;-2.134;2024-01-30T14:02:42;0.60;;;0.50;;
23628;SDS011;11991;57.150;-2.134;2024-01-30T14:05:09;4.38;;;1.73;;
23628;SDS011;11991;57.150;-2.134;2024-01-30T14:07:37;1.90;;;0.90;;
23628;SDS011;11991;57.150;-2.134;2024-01-30T14:10:06;1.20;;;1.10;;
23628;SDS011;11991;57.150;-2.134;2024-01-30T14:12:38;2.53;;;1.55;;
23628;SDS011;11991;57.150;-2.134;2024-01-30T14:15:07;2.42;;;1.38;;
23628;SDS011;11991;57.150;-2.134;2024-01-30T14:17:52;0.70;;;0.70;;
23628;SDS011;11991;57.150;-2.134;2024-01-30T14:20:20;1.00;;;0.68;;
23628;SDS011;11991;57.150;-2.134;2024-01-30T14:22:47;1.30;;;0.80;;
23628;SDS011;11991;57.150;-2.134;2024-01-30T14:25:14;1.05;;;0.90;;
23628;SDS011;11991;57.150;-2.134;2024-01-30T14:27:43;1.20;;;0.90;;
23628;SDS011;11991;57.150;-2.134;2024-01-30T14:30:10;1.38;;;0.95;;
23628;SDS011;11991;57.150;-2.134;2024-01-30T14:32:38;2.03;;;1.20;;
23628;SDS011;11991;57.150;-2.134;2024-01-30T14:35:07;1.27;;;1.00;;
23628;SDS011;11991;57.150;-2.134;2024-01-30T14:37:35;1.20;;;1.05;;
23628;SDS011;11991;57.150;-2.134;2024-01-30T14:40:03;2.60;;;1.95;;